Weather Center

VHHH METAR :
VHHH 231600Z 06003KT 7000 NSC 19/14 Q1015 NOSIG

VHHH TAF :
VHHH 231100Z 2312/2418 VRB05KT 8000 FEW030 TX21/2406Z TN17/2322Z
BECMG 2320/2322 08010KT

VMMC METAR :
VMMCH

VMMC TAF :
VMMC 231100Z 2312/2418 VRB03KT 7000 FEW025
TEMPO 2312/2318 4500 BR
BECMG 2400/2403 09012KT

Comments are closed